sensor_id;sensor_type;location;lat;lon;timestamp;P1;durP1;ratioP1;P2;durP2;ratioP2
56039;SDS011;43937;41.366;2.072;2023-06-10T00:02:10;6.80;;;3.60;;
56039;SDS011;43937;41.366;2.072;2023-06-10T00:04:35;4.18;;;2.40;;
56039;SDS011;43937;41.366;2.072;2023-06-10T00:07:04;4.88;;;2.78;;
56039;SDS011;43937;41.366;2.072;2023-06-10T00:09:36;4.82;;;2.88;;
56039;SDS011;43937;41.366;2.072;2023-06-10T00:12:06;5.30;;;2.85;;
56039;SDS011;43937;41.366;2.072;2023-06-10T00:14:58;8.15;;;2.90;;
56039;SDS011;43937;41.366;2.072;2023-06-10T00:17:24;7.22;;;3.03;;
56039;SDS011;43937;41.366;2.072;2023-06-10T00:19:50;5.75;;;3.33;;
56039;SDS011;43937;41.366;2.072;2023-06-10T00:22:15;9.30;;;3.58;;
56039;SDS011;43937;41.366;2.072;2023-06-10T00:24:41;5.97;;;2.80;;
56039;SDS011;43937;41.366;2.072;2023-06-10T00:27:07;5.72;;;3.15;;
56039;SDS011;43937;41.366;2.072;2023-06-10T00:29:32;7.72;;;2.90;;
56039;SDS011;43937;41.366;2.072;2023-06-10T00:31:58;5.40;;;2.47;;
56039;SDS011;43937;41.366;2.072;2023-06-10T00:34:24;10.80;;;3.10;;
56039;SDS011;43937;41.366;2.072;2023-06-10T00:36:49;6.00;;;2.72;;
56039;SDS011;43937;41.366;2.072;2023-06-10T00:39:15;5.07;;;2.75;;
56039;SDS011;43937;41.366;2.072;2023-06-10T00:41:41;6.40;;;2.85;;
56039;SDS011;43937;41.366;2.072;2023-06-10T00:44:07;5.75;;;2.60;;
56039;SDS011;43937;41.366;2.072;2023-06-10T00:46:32;4.32;;;2.78;;
56039;SDS011;43937;41.366;2.072;2023-06-10T00:48:59;8.65;;;2.92;;
56039;SDS011;43937;41.366;2.072;2023-06-10T00:51:25;5.97;;;3.10;;
56039;SDS011;43937;41.366;2.072;2023-06-10T00:53:51;7.90;;;3.47;;
56039;SDS011;43937;41.366;2.072;2023-06-10T00:56:18;9.52;;;3.70;;
56039;SDS011;43937;41.366;2.072;2023-06-10T00:58:43;7.78;;;3.53;;
56039;SDS011;43937;41.366;2.072;2023-06-10T01:01:09;6.07;;;3.17;;
56039;SDS011;43937;41.366;2.072;2023-06-10T01:03:36;8.65;;;3.33;;
56039;SDS011;43937;41.366;2.072;2023-06-10T01:08:46;5.70;;;2.58;;
56039;SDS011;43937;41.366;2.072;2023-06-10T01:11:21;8.32;;;3.45;;
56039;SDS011;43937;41.366;2.072;2023-06-10T01:13:53;4.45;;;2.67;;
56039;SDS011;43937;41.366;2.072;2023-06-10T01:16:21;5.90;;;2.92;;
56039;SDS011;43937;41.366;2.072;2023-06-10T01:18:47;5.70;;;2.95;;
56039;SDS011;43937;41.366;2.072;2023-06-10T01:21:22;8.73;;;2.75;;
56039;SDS011;43937;41.366;2.072;2023-06-10T01:23:52;3.70;;;2.70;;
56039;SDS011;43937;41.366;2.072;2023-06-10T01:26:21;4.18;;;2.38;;
56039;SDS011;43937;41.366;2.072;2023-06-10T01:29:02;4.15;;;2.80;;
56039;SDS011;43937;41.366;2.072;2023-06-10T01:34:01;3.35;;;2.10;;
56039;SDS011;43937;41.366;2.072;2023-06-10T01:36:32;5.50;;;2.90;;
56039;SDS011;43937;41.366;2.072;2023-06-10T01:39:00;6.07;;;2.80;;
56039;SDS011;43937;41.366;2.072;2023-06-10T01:41:27;3.78;;;2.47;;
56039;SDS011;43937;41.366;2.072;2023-06-10T01:44:24;6.32;;;2.78;;
56039;SDS011;43937;41.366;2.072;2023-06-10T01:46:49;6.88;;;2.38;;
56039;SDS011;43937;41.366;2.072;2023-06-10T01:49:15;12.77;;;2.55;;
56039;SDS011;43937;41.366;2.072;2023-06-10T01:51:41;5.32;;;2.47;;
56039;SDS011;43937;41.366;2.072;2023-06-10T01:54:06;4.22;;;2.35;;
56039;SDS011;43937;41.366;2.072;2023-06-10T01:56:32;5.47;;;2.50;;
56039;SDS011;43937;41.366;2.072;2023-06-10T01:58:58;4.50;;;2.60;;
56039;SDS011;43937;41.366;2.072;2023-06-10T02:01:27;9.35;;;2.80;;
56039;SDS011;43937;41.366;2.072;2023-06-10T02:03:53;11.52;;;2.88;;
56039;SDS011;43937;41.366;2.072;2023-06-10T02:06:19;5.93;;;2.63;;
56039;SDS011;43937;41.366;2.072;2023-06-10T02:08:44;11.27;;;2.55;;
56039;SDS011;43937;41.366;2.072;2023-06-10T02:11:10;4.63;;;2.78;;
56039;SDS011;43937;41.366;2.072;2023-06-10T02:13:35;6.38;;;3.03;;
56039;SDS011;43937;41.366;2.072;2023-06-10T02:16:01;5.15;;;2.85;;
56039;SDS011;43937;41.366;2.072;2023-06-10T02:18:26;6.70;;;3.17;;
56039;SDS011;43937;41.366;2.072;2023-06-10T02:20:53;5.22;;;3.03;;
56039;SDS011;43937;41.366;2.072;2023-06-10T02:23:19;6.55;;;2.60;;
56039;SDS011;43937;41.366;2.072;2023-06-10T02:25:45;11.93;;;2.83;;
56039;SDS011;43937;41.366;2.072;2023-06-10T02:28:12;9.68;;;3.30;;
56039;SDS011;43937;41.366;2.072;2023-06-10T02:30:41;5.93;;;2.85;;
56039;SDS011;43937;41.366;2.072;2023-06-10T02:33:07;6.45;;;2.78;;
56039;SDS011;43937;41.366;2.072;2023-06-10T02:35:36;5.05;;;3.28;;
56039;SDS011;43937;41.366;2.072;2023-06-10T02:38:03;5.20;;;2.63;;
56039;SDS011;43937;41.366;2.072;2023-06-10T02:40:29;4.68;;;3.10;;
56039;SDS011;43937;41.366;2.072;2023-06-10T02:42:54;5.65;;;3.20;;
56039;SDS011;43937;41.366;2.072;2023-06-10T02:45:20;5.05;;;3.13;;
56039;SDS011;43937;41.366;2.072;2023-06-10T02:47:45;6.53;;;3.10;;
56039;SDS011;43937;41.366;2.072;2023-06-10T02:50:11;6.45;;;2.65;;
56039;SDS011;43937;41.366;2.072;2023-06-10T02:52:36;7.80;;;3.90;;
56039;SDS011;43937;41.366;2.072;2023-06-10T02:55:02;4.15;;;3.25;;
56039;SDS011;43937;41.366;2.072;2023-06-10T02:57:28;7.75;;;3.90;;
56039;SDS011;43937;41.366;2.072;2023-06-10T02:59:53;9.32;;;4.55;;
56039;SDS011;43937;41.366;2.072;2023-06-10T03:02:19;9.20;;;3.90;;
56039;SDS011;43937;41.366;2.072;2023-06-10T03:04:45;5.07;;;3.30;;
56039;SDS011;43937;41.366;2.072;2023-06-10T03:07:10;6.97;;;3.30;;
56039;SDS011;43937;41.366;2.072;2023-06-10T03:11:04;9.43;;;3.85;;
56039;SDS011;43937;41.366;2.072;2023-06-10T03:13:29;8.30;;;3.53;;
56039;SDS011;43937;41.366;2.072;2023-06-10T03:15:55;8.88;;;4.25;;
56039;SDS011;43937;41.366;2.072;2023-06-10T03:18:20;11.75;;;3.53;;
56039;SDS011;43937;41.366;2.072;2023-06-10T03:20:48;8.00;;;3.70;;
56039;SDS011;43937;41.366;2.072;2023-06-10T03:23:13;7.72;;;3.35;;
56039;SDS011;43937;41.366;2.072;2023-06-10T03:25:39;8.77;;;3.78;;
56039;SDS011;43937;41.366;2.072;2023-06-10T03:28:04;12.35;;;3.13;;
56039;SDS011;43937;41.366;2.072;2023-06-10T03:30:29;5.25;;;3.28;;
56039;SDS011;43937;41.366;2.072;2023-06-10T03:32:55;6.13;;;3.70;;
56039;SDS011;43937;41.366;2.072;2023-06-10T03:35:20;14.30;;;4.13;;
56039;SDS011;43937;41.366;2.072;2023-06-10T03:37:46;5.55;;;3.70;;
56039;SDS011;43937;41.366;2.072;2023-06-10T03:40:11;6.63;;;3.50;;
56039;SDS011;43937;41.366;2.072;2023-06-10T03:42:37;6.30;;;3.85;;
56039;SDS011;43937;41.366;2.072;2023-06-10T03:45:03;8.68;;;3.70;;
56039;SDS011;43937;41.366;2.072;2023-06-10T03:47:35;7.18;;;3.50;;
56039;SDS011;43937;41.366;2.072;2023-06-10T03:50:02;11.02;;;4.07;;
56039;SDS011;43937;41.366;2.072;2023-06-10T03:52:29;8.80;;;4.03;;
56039;SDS011;43937;41.366;2.072;2023-06-10T03:54:54;8.93;;;4.00;;
56039;SDS011;43937;41.366;2.072;2023-06-10T03:57:20;11.32;;;4.20;;
56039;SDS011;43937;41.366;2.072;2023-06-10T03:59:45;8.90;;;3.60;;
56039;SDS011;43937;41.366;2.072;2023-06-10T04:02:11;11.65;;;4.38;;
56039;SDS011;43937;41.366;2.072;2023-06-10T04:04:36;7.47;;;3.97;;
56039;SDS011;43937;41.366;2.072;2023-06-10T04:07:03;12.93;;;4.90;;
56039;SDS011;43937;41.366;2.072;2023-06-10T04:09:29;7.63;;;4.43;;
56039;SDS011;43937;41.366;2.072;2023-06-10T04:11:54;6.75;;;3.97;;
56039;SDS011;43937;41.366;2.072;2023-06-10T04:14:20;6.25;;;3.47;;
56039;SDS011;43937;41.366;2.072;2023-06-10T04:16:45;6.43;;;4.03;;
56039;SDS011;43937;41.366;2.072;2023-06-10T04:19:10;4.50;;;3.20;;
56039;SDS011;43937;41.366;2.072;2023-06-10T04:21:36;7.60;;;3.95;;
56039;SDS011;43937;41.366;2.072;2023-06-10T04:24:01;6.85;;;3.63;;
56039;SDS011;43937;41.366;2.072;2023-06-10T04:26:27;5.65;;;2.85;;
56039;SDS011;43937;41.366;2.072;2023-06-10T04:28:53;12.68;;;3.60;;
56039;SDS011;43937;41.366;2.072;2023-06-10T04:31:18;4.90;;;3.13;;
56039;SDS011;43937;41.366;2.072;2023-06-10T04:33:44;5.43;;;2.90;;
56039;SDS011;43937;41.366;2.072;2023-06-10T04:36:10;5.88;;;3.17;;
56039;SDS011;43937;41.366;2.072;2023-06-10T04:38:35;3.45;;;2.63;;
56039;SDS011;43937;41.366;2.072;2023-06-10T04:41:01;4.55;;;2.90;;
56039;SDS011;43937;41.366;2.072;2023-06-10T04:43:27;8.48;;;3.05;;
56039;SDS011;43937;41.366;2.072;2023-06-10T04:45:53;11.93;;;3.03;;
56039;SDS011;43937;41.366;2.072;2023-06-10T04:48:19;6.03;;;2.47;;
56039;SDS011;43937;41.366;2.072;2023-06-10T04:50:45;5.05;;;2.70;;
56039;SDS011;43937;41.366;2.072;2023-06-10T04:53:10;11.20;;;3.20;;
56039;SDS011;43937;41.366;2.072;2023-06-10T04:55:36;9.13;;;3.50;;
56039;SDS011;43937;41.366;2.072;2023-06-10T04:58:01;4.32;;;2.70;;
56039;SDS011;43937;41.366;2.072;2023-06-10T05:00:27;7.70;;;2.85;;
56039;SDS011;43937;41.366;2.072;2023-06-10T05:04:50;5.45;;;2.28;;
56039;SDS011;43937;41.366;2.072;2023-06-10T05:07:15;13.10;;;2.47;;
56039;SDS011;43937;41.366;2.072;2023-06-10T05:09:41;8.07;;;2.15;;
56039;SDS011;43937;41.366;2.072;2023-06-10T05:12:06;2.90;;;2.55;;
56039;SDS011;43937;41.366;2.072;2023-06-10T05:14:32;5.65;;;2.03;;
56039;SDS011;43937;41.366;2.072;2023-06-10T05:16:57;5.00;;;2.33;;
56039;SDS011;43937;41.366;2.072;2023-06-10T05:19:23;6.40;;;2.60;;
56039;SDS011;43937;41.366;2.072;2023-06-10T05:21:48;3.42;;;2.15;;
56039;SDS011;43937;41.366;2.072;2023-06-10T05:24:14;4.85;;;2.25;;
56039;SDS011;43937;41.366;2.072;2023-06-10T05:26:39;4.57;;;2.35;;
56039;SDS011;43937;41.366;2.072;2023-06-10T05:29:06;4.20;;;2.22;;
56039;SDS011;43937;41.366;2.072;2023-06-10T05:31:34;4.55;;;2.00;;
56039;SDS011;43937;41.366;2.072;2023-06-10T05:33:59;2.55;;;1.85;;
56039;SDS011;43937;41.366;2.072;2023-06-10T05:36:25;3.60;;;2.10;;
56039;SDS011;43937;41.366;2.072;2023-06-10T05:38:51;8.07;;;2.78;;
56039;SDS011;43937;41.366;2.072;2023-06-10T05:41:17;4.72;;;2.70;;
56039;SDS011;43937;41.366;2.072;2023-06-10T05:43:42;3.45;;;2.00;;
56039;SDS011;43937;41.366;2.072;2023-06-10T05:46:08;5.65;;;1.92;;
56039;SDS011;43937;41.366;2.072;2023-06-10T05:48:34;6.15;;;2.47;;
56039;SDS011;43937;41.366;2.072;2023-06-10T05:51:00;5.35;;;2.42;;
56039;SDS011;43937;41.366;2.072;2023-06-10T05:53:26;8.10;;;2.00;;
56039;SDS011;43937;41.366;2.072;2023-06-10T05:55:51;7.15;;;2.28;;
56039;SDS011;43937;41.366;2.072;2023-06-10T05:58:18;5.88;;;2.15;;
56039;SDS011;43937;41.366;2.072;2023-06-10T06:00:45;3.17;;;2.05;;
56039;SDS011;43937;41.366;2.072;2023-06-10T06:03:10;3.78;;;1.83;;
56039;SDS011;43937;41.366;2.072;2023-06-10T06:05:36;5.63;;;1.80;;
56039;SDS011;43937;41.366;2.072;2023-06-10T06:08:26;8.70;;;1.98;;
56039;SDS011;43937;41.366;2.072;2023-06-10T06:10:52;5.78;;;2.38;;
56039;SDS011;43937;41.366;2.072;2023-06-10T06:13:17;5.85;;;2.60;;
56039;SDS011;43937;41.366;2.072;2023-06-10T06:15:43;2.72;;;1.60;;
56039;SDS011;43937;41.366;2.072;2023-06-10T06:18:08;9.30;;;2.00;;
56039;SDS011;43937;41.366;2.072;2023-06-10T06:20:34;2.47;;;1.50;;
56039;SDS011;43937;41.366;2.072;2023-06-10T06:22:59;3.83;;;1.75;;
56039;SDS011;43937;41.366;2.072;2023-06-10T06:25:25;6.47;;;1.88;;
56039;SDS011;43937;41.366;2.072;2023-06-10T06:27:50;4.22;;;2.13;;
56039;SDS011;43937;41.366;2.072;2023-06-10T06:30:15;4.63;;;2.10;;
56039;SDS011;43937;41.366;2.072;2023-06-10T06:32:41;6.18;;;2.08;;
56039;SDS011;43937;41.366;2.072;2023-06-10T06:35:07;12.18;;;2.70;;
56039;SDS011;43937;41.366;2.072;2023-06-10T06:37:33;15.20;;;2.58;;
56039;SDS011;43937;41.366;2.072;2023-06-10T06:39:58;6.93;;;2.58;;
56039;SDS011;43937;41.366;2.072;2023-06-10T06:42:24;6.10;;;2.25;;
56039;SDS011;43937;41.366;2.072;2023-06-10T06:44:49;6.40;;;2.80;;
56039;SDS011;43937;41.366;2.072;2023-06-10T06:47:15;8.27;;;2.58;;
56039;SDS011;43937;41.366;2.072;2023-06-10T06:49:44;4.43;;;2.45;;
56039;SDS011;43937;41.366;2.072;2023-06-10T06:52:10;3.17;;;1.92;;
56039;SDS011;43937;41.366;2.072;2023-06-10T06:54:36;9.23;;;2.25;;
56039;SDS011;43937;41.366;2.072;2023-06-10T06:57:01;5.15;;;1.77;;
56039;SDS011;43937;41.366;2.072;2023-06-10T06:59:27;3.10;;;2.00;;
56039;SDS011;43937;41.366;2.072;2023-06-10T07:01:52;5.45;;;1.98;;
56039;SDS011;43937;41.366;2.072;2023-06-10T07:04:19;1.98;;;1.45;;
56039;SDS011;43937;41.366;2.072;2023-06-10T07:06:47;13.15;;;1.58;;
56039;SDS011;43937;41.366;2.072;2023-06-10T07:09:12;4.40;;;2.00;;
56039;SDS011;43937;41.366;2.072;2023-06-10T07:11:38;5.13;;;2.10;;
56039;SDS011;43937;41.366;2.072;2023-06-10T07:14:03;6.15;;;3.15;;
56039;SDS011;43937;41.366;2.072;2023-06-10T07:16:29;4.43;;;2.20;;
56039;SDS011;43937;41.366;2.072;2023-06-10T07:18:54;4.20;;;2.22;;
56039;SDS011;43937;41.366;2.072;2023-06-10T07:21:20;4.72;;;2.20;;
56039;SDS011;43937;41.366;2.072;2023-06-10T07:23:46;4.93;;;2.15;;
56039;SDS011;43937;41.366;2.072;2023-06-10T07:26:11;6.00;;;2.35;;
56039;SDS011;43937;41.366;2.072;2023-06-10T07:28:38;2.63;;;1.95;;
56039;SDS011;43937;41.366;2.072;2023-06-10T07:31:05;6.10;;;2.30;;
56039;SDS011;43937;41.366;2.072;2023-06-10T07:33:30;3.40;;;2.30;;
56039;SDS011;43937;41.366;2.072;2023-06-10T07:35:56;6.55;;;1.95;;
56039;SDS011;43937;41.366;2.072;2023-06-10T07:38:21;5.10;;;2.15;;
56039;SDS011;43937;41.366;2.072;2023-06-10T07:40:47;5.03;;;2.30;;
56039;SDS011;43937;41.366;2.072;2023-06-10T07:43:12;7.68;;;3.03;;
56039;SDS011;43937;41.366;2.072;2023-06-10T07:45:40;2.03;;;1.38;;
56039;SDS011;43937;41.366;2.072;2023-06-10T07:48:19;3.08;;;2.30;;
56039;SDS011;43937;41.366;2.072;2023-06-10T07:50:44;3.95;;;1.77;;
56039;SDS011;43937;41.366;2.072;2023-06-10T07:53:10;4.65;;;2.03;;
56039;SDS011;43937;41.366;2.072;2023-06-10T07:55:35;2.85;;;1.65;;
56039;SDS011;43937;41.366;2.072;2023-06-10T07:58:01;5.03;;;2.15;;
56039;SDS011;43937;41.366;2.072;2023-06-10T08:00:26;6.05;;;1.85;;
56039;SDS011;43937;41.366;2.072;2023-06-10T08:02:52;3.40;;;1.77;;
56039;SDS011;43937;41.366;2.072;2023-06-10T08:05:17;5.85;;;1.52;;
56039;SDS011;43937;41.366;2.072;2023-06-10T08:07:43;2.97;;;1.77;;
56039;SDS011;43937;41.366;2.072;2023-06-10T08:10:09;7.30;;;3.45;;
56039;SDS011;43937;41.366;2.072;2023-06-10T08:12:35;5.40;;;3.72;;
56039;SDS011;43937;41.366;2.072;2023-06-10T08:15:02;5.93;;;3.20;;
56039;SDS011;43937;41.366;2.072;2023-06-10T08:17:29;4.95;;;2.97;;
56039;SDS011;43937;41.366;2.072;2023-06-10T08:19:55;6.60;;;3.53;;
56039;SDS011;43937;41.366;2.072;2023-06-10T08:22:20;8.43;;;3.42;;
56039;SDS011;43937;41.366;2.072;2023-06-10T08:24:46;7.68;;;3.30;;
56039;SDS011;43937;41.366;2.072;2023-06-10T08:27:11;6.55;;;2.70;;
56039;SDS011;43937;41.366;2.072;2023-06-10T08:29:37;5.00;;;3.10;;
56039;SDS011;43937;41.366;2.072;2023-06-10T08:32:02;6.00;;;2.70;;
56039;SDS011;43937;41.366;2.072;2023-06-10T08:35:57;7.65;;;3.15;;
56039;SDS011;43937;41.366;2.072;2023-06-10T08:38:23;8.23;;;3.05;;
56039;SDS011;43937;41.366;2.072;2023-06-10T08:40:48;4.65;;;2.60;;
56039;SDS011;43937;41.366;2.072;2023-06-10T08:43:17;4.15;;;3.10;;
56039;SDS011;43937;41.366;2.072;2023-06-10T08:45:45;7.32;;;3.25;;
56039;SDS011;43937;41.366;2.072;2023-06-10T08:48:13;13.18;;;3.15;;
56039;SDS011;43937;41.366;2.072;2023-06-10T08:50:41;7.20;;;2.75;;
56039;SDS011;43937;41.366;2.072;2023-06-10T08:53:07;3.35;;;2.72;;
56039;SDS011;43937;41.366;2.072;2023-06-10T08:55:35;5.40;;;2.65;;
56039;SDS011;43937;41.366;2.072;2023-06-10T08:58:03;3.20;;;2.40;;
56039;SDS011;43937;41.366;2.072;2023-06-10T09:00:29;5.82;;;2.72;;
56039;SDS011;43937;41.366;2.072;2023-06-10T09:02:55;2.95;;;2.47;;
56039;SDS011;43937;41.366;2.072;2023-06-10T09:05:21;4.85;;;2.67;;
56039;SDS011;43937;41.366;2.072;2023-06-10T09:07:47;9.80;;;3.17;;
56039;SDS011;43937;41.366;2.072;2023-06-10T09:10:14;4.32;;;2.35;;
56039;SDS011;43937;41.366;2.072;2023-06-10T09:12:40;6.10;;;2.97;;
56039;SDS011;43937;41.366;2.072;2023-06-10T09:15:06;4.72;;;3.08;;
56039;SDS011;43937;41.366;2.072;2023-06-10T09:17:32;4.90;;;2.80;;
56039;SDS011;43937;41.366;2.072;2023-06-10T09:19:59;9.18;;;3.38;;
56039;SDS011;43937;41.366;2.072;2023-06-10T09:22:25;5.90;;;2.83;;
56039;SDS011;43937;41.366;2.072;2023-06-10T09:24:52;5.70;;;2.78;;
56039;SDS011;43937;41.366;2.072;2023-06-10T09:27:29;5.10;;;2.22;;
56039;SDS011;43937;41.366;2.072;2023-06-10T09:29:56;6.30;;;2.65;;
56039;SDS011;43937;41.366;2.072;2023-06-10T09:32:23;6.75;;;2.30;;
56039;SDS011;43937;41.366;2.072;2023-06-10T09:34:49;4.22;;;2.20;;
56039;SDS011;43937;41.366;2.072;2023-06-10T09:37:25;3.25;;;2.00;;
56039;SDS011;43937;41.366;2.072;2023-06-10T09:40:03;5.10;;;2.30;;
56039;SDS011;43937;41.366;2.072;2023-06-10T09:42:32;10.00;;;2.65;;
56039;SDS011;43937;41.366;2.072;2023-06-10T09:44:59;4.85;;;1.88;;
56039;SDS011;43937;41.366;2.072;2023-06-10T09:47:25;4.70;;;2.33;;
56039;SDS011;43937;41.366;2.072;2023-06-10T09:49:50;3.25;;;1.80;;
56039;SDS011;43937;41.366;2.072;2023-06-10T09:52:21;3.97;;;2.22;;
56039;SDS011;43937;41.366;2.072;2023-06-10T09:54:48;4.63;;;1.83;;
56039;SDS011;43937;41.366;2.072;2023-06-10T09:57:13;4.30;;;2.25;;
56039;SDS011;43937;41.366;2.072;2023-06-10T09:59:39;7.40;;;2.30;;
56039;SDS011;43937;41.366;2.072;2023-06-10T10:02:06;3.55;;;1.80;;
56039;SDS011;43937;41.366;2.072;2023-06-10T10:04:31;6.18;;;1.88;;
56039;SDS011;43937;41.366;2.072;2023-06-10T10:07:02;4.13;;;1.52;;
56039;SDS011;43937;41.366;2.072;2023-06-10T10:09:28;3.00;;;1.55;;
56039;SDS011;43937;41.366;2.072;2023-06-10T10:11:53;4.50;;;1.73;;
56039;SDS011;43937;41.366;2.072;2023-06-10T10:14:20;3.60;;;1.88;;
56039;SDS011;43937;41.366;2.072;2023-06-10T10:16:47;3.08;;;1.33;;
56039;SDS011;43937;41.366;2.072;2023-06-10T10:19:20;2.67;;;1.50;;
56039;SDS011;43937;41.366;2.072;2023-06-10T10:21:52;2.55;;;1.73;;
56039;SDS011;43937;41.366;2.072;2023-06-10T10:24:23;3.60;;;1.50;;
56039;SDS011;43937;41.366;2.072;2023-06-10T10:26:56;3.63;;;1.33;;
56039;SDS011;43937;41.366;2.072;2023-06-10T10:29:25;4.78;;;1.50;;
56039;SDS011;43937;41.366;2.072;2023-06-10T10:31:53;5.13;;;1.70;;
56039;SDS011;43937;41.366;2.072;2023-06-10T10:34:25;3.38;;;1.45;;
56039;SDS011;43937;41.366;2.072;2023-06-10T10:37:02;4.32;;;1.50;;
56039;SDS011;43937;41.366;2.072;2023-06-10T10:39:28;2.88;;;1.20;;
56039;SDS011;43937;41.366;2.072;2023-06-10T10:41:55;2.55;;;1.73;;
56039;SDS011;43937;41.366;2.072;2023-06-10T10:44:22;2.55;;;1.80;;
56039;SDS011;43937;41.366;2.072;2023-06-10T10:46:49;2.65;;;1.55;;
56039;SDS011;43937;41.366;2.072;2023-06-10T10:49:15;4.57;;;1.35;;
56039;SDS011;43937;41.366;2.072;2023-06-10T10:51:58;2.55;;;1.60;;
56039;SDS011;43937;41.366;2.072;2023-06-10T10:57:23;5.30;;;2.30;;
56039;SDS011;43937;41.366;2.072;2023-06-10T11:05:06;4.00;;;2.47;;
56039;SDS011;43937;41.366;2.072;2023-06-10T11:07:32;5.53;;;2.78;;
56039;SDS011;43937;41.366;2.072;2023-06-10T11:10:12;7.07;;;2.42;;
56039;SDS011;43937;41.366;2.072;2023-06-10T11:15:09;4.47;;;2.55;;
56039;SDS011;43937;41.366;2.072;2023-06-10T11:17:35;2.95;;;2.30;;
56039;SDS011;43937;41.366;2.072;2023-06-10T11:20:00;5.18;;;2.60;;
56039;SDS011;43937;41.366;2.072;2023-06-10T11:22:26;7.18;;;2.88;;
56039;SDS011;43937;41.366;2.072;2023-06-10T11:24:51;6.90;;;2.80;;
56039;SDS011;43937;41.366;2.072;2023-06-10T11:32:48;5.38;;;3.03;;
56039;SDS011;43937;41.366;2.072;2023-06-10T11:35:18;7.00;;;3.35;;
56039;SDS011;43937;41.366;2.072;2023-06-10T11:37:44;7.57;;;3.53;;
56039;SDS011;43937;41.366;2.072;2023-06-10T11:40:10;6.40;;;3.65;;
56039;SDS011;43937;41.366;2.072;2023-06-10T11:42:42;10.40;;;3.53;;
56039;SDS011;43937;41.366;2.072;2023-06-10T11:45:09;6.32;;;3.17;;
56039;SDS011;43937;41.366;2.072;2023-06-10T11:47:34;5.97;;;3.50;;
56039;SDS011;43937;41.366;2.072;2023-06-10T11:50:00;4.90;;;3.25;;
56039;SDS011;43937;41.366;2.072;2023-06-10T11:52:26;4.50;;;3.42;;
56039;SDS011;43937;41.366;2.072;2023-06-10T11:54:56;8.20;;;3.95;;
56039;SDS011;43937;41.366;2.072;2023-06-10T11:57:21;8.77;;;4.05;;
56039;SDS011;43937;41.366;2.072;2023-06-10T11:59:47;6.30;;;3.40;;
56039;SDS011;43937;41.366;2.072;2023-06-10T12:02:16;8.13;;;3.92;;
56039;SDS011;43937;41.366;2.072;2023-06-10T12:04:41;12.93;;;3.58;;
56039;SDS011;43937;41.366;2.072;2023-06-10T12:07:07;7.93;;;4.03;;
56039;SDS011;43937;41.366;2.072;2023-06-10T12:09:32;8.73;;;3.83;;
56039;SDS011;43937;41.366;2.072;2023-06-10T12:12:02;11.38;;;4.07;;
56039;SDS011;43937;41.366;2.072;2023-06-10T12:19:58;5.93;;;3.65;;
56039;SDS011;43937;41.366;2.072;2023-06-10T12:22:25;6.43;;;3.85;;
56039;SDS011;43937;41.366;2.072;2023-06-10T12:24:58;8.30;;;3.97;;
56039;SDS011;43937;41.366;2.072;2023-06-10T12:27:24;9.32;;;4.60;;
56039;SDS011;43937;41.366;2.072;2023-06-10T12:29:51;9.77;;;4.78;;
56039;SDS011;43937;41.366;2.072;2023-06-10T12:32:20;9.02;;;4.40;;
56039;SDS011;43937;41.366;2.072;2023-06-10T12:35:55;11.25;;;4.10;;
56039;SDS011;43937;41.366;2.072;2023-06-10T12:38:24;9.20;;;3.63;;
56039;SDS011;43937;41.366;2.072;2023-06-10T12:40:52;9.88;;;4.50;;
56039;SDS011;43937;41.366;2.072;2023-06-10T12:43:21;10.63;;;4.10;;
56039;SDS011;43937;41.366;2.072;2023-06-10T12:45:48;8.85;;;3.47;;
56039;SDS011;43937;41.366;2.072;2023-06-10T12:48:21;8.90;;;3.63;;
56039;SDS011;43937;41.366;2.072;2023-06-10T12:50:52;7.53;;;3.10;;
56039;SDS011;43937;41.366;2.072;2023-06-10T12:53:19;10.15;;;4.60;;
56039;SDS011;43937;41.366;2.072;2023-06-10T12:55:46;8.60;;;4.38;;
56039;SDS011;43937;41.366;2.072;2023-06-10T12:58:12;14.05;;;4.07;;
56039;SDS011;43937;41.366;2.072;2023-06-10T13:00:38;7.85;;;3.25;;
56039;SDS011;43937;41.366;2.072;2023-06-10T13:03:05;8.52;;;3.70;;
56039;SDS011;43937;41.366;2.072;2023-06-10T13:05:31;6.13;;;3.45;;
56039;SDS011;43937;41.366;2.072;2023-06-10T13:07:57;9.93;;;2.65;;
56039;SDS011;43937;41.366;2.072;2023-06-10T13:10:24;5.70;;;3.42;;
56039;SDS011;43937;41.366;2.072;2023-06-10T13:12:50;11.35;;;3.67;;
56039;SDS011;43937;41.366;2.072;2023-06-10T13:15:16;9.52;;;3.78;;
56039;SDS011;43937;41.366;2.072;2023-06-10T13:17:45;5.07;;;3.45;;
56039;SDS011;43937;41.366;2.072;2023-06-10T13:20:15;4.90;;;2.53;;
56039;SDS011;43937;41.366;2.072;2023-06-10T13:22:42;6.80;;;2.70;;
56039;SDS011;43937;41.366;2.072;2023-06-10T13:25:08;8.38;;;3.30;;
56039;SDS011;43937;41.366;2.072;2023-06-10T13:27:34;4.70;;;3.00;;
56039;SDS011;43937;41.366;2.072;2023-06-10T13:30:04;5.50;;;2.90;;
56039;SDS011;43937;41.366;2.072;2023-06-10T13:34:38;5.65;;;3.20;;
56039;SDS011;43937;41.366;2.072;2023-06-10T13:37:03;11.23;;;2.80;;
56039;SDS011;43937;41.366;2.072;2023-06-10T13:39:30;5.18;;;3.22;;
56039;SDS011;43937;41.366;2.072;2023-06-10T13:41:55;7.25;;;3.28;;
56039;SDS011;43937;41.366;2.072;2023-06-10T13:44:21;6.65;;;2.92;;
56039;SDS011;43937;41.366;2.072;2023-06-10T13:46:46;14.27;;;3.85;;
56039;SDS011;43937;41.366;2.072;2023-06-10T13:49:12;7.70;;;3.05;;
56039;SDS011;43937;41.366;2.072;2023-06-10T13:51:37;10.10;;;3.55;;
56039;SDS011;43937;41.366;2.072;2023-06-10T13:54:03;5.75;;;3.08;;
56039;SDS011;43937;41.366;2.072;2023-06-10T13:56:28;9.20;;;3.50;;
56039;SDS011;43937;41.366;2.072;2023-06-10T13:58:53;6.45;;;2.97;;
56039;SDS011;43937;41.366;2.072;2023-06-10T14:01:19;5.78;;;2.70;;
56039;SDS011;43937;41.366;2.072;2023-06-10T14:03:45;12.38;;;2.72;;
56039;SDS011;43937;41.366;2.072;2023-06-10T14:06:10;5.13;;;2.25;;
56039;SDS011;43937;41.366;2.072;2023-06-10T14:08:38;6.30;;;2.58;;
56039;SDS011;43937;41.366;2.072;2023-06-10T14:11:03;5.03;;;2.50;;
56039;SDS011;43937;41.366;2.072;2023-06-10T14:13:32;9.15;;;2.65;;
56039;SDS011;43937;41.366;2.072;2023-06-10T14:15:58;4.95;;;2.22;;
56039;SDS011;43937;41.366;2.072;2023-06-10T14:18:27;8.77;;;2.83;;
56039;SDS011;43937;41.366;2.072;2023-06-10T14:20:53;5.75;;;2.55;;
56039;SDS011;43937;41.366;2.072;2023-06-10T14:23:18;7.43;;;2.83;;
56039;SDS011;43937;41.366;2.072;2023-06-10T14:25:44;6.50;;;2.97;;
56039;SDS011;43937;41.366;2.072;2023-06-10T14:29:53;8.07;;;3.15;;
56039;SDS011;43937;41.366;2.072;2023-06-10T14:32:18;8.85;;;2.75;;
56039;SDS011;43937;41.366;2.072;2023-06-10T14:34:44;7.47;;;2.90;;
56039;SDS011;43937;41.366;2.072;2023-06-10T14:37:11;10.80;;;2.42;;
56039;SDS011;43937;41.366;2.072;2023-06-10T14:39:37;11.18;;;3.10;;
56039;SDS011;43937;41.366;2.072;2023-06-10T14:42:03;12.13;;;3.63;;
56039;SDS011;43937;41.366;2.072;2023-06-10T14:44:28;8.00;;;3.35;;
56039;SDS011;43937;41.366;2.072;2023-06-10T14:46:54;37.33;;;4.60;;
56039;SDS011;43937;41.366;2.072;2023-06-10T14:49:20;29.15;;;4.40;;
56039;SDS011;43937;41.366;2.072;2023-06-10T14:51:45;10.82;;;2.95;;
56039;SDS011;43937;41.366;2.072;2023-06-10T14:55:43;12.68;;;3.25;;
56039;SDS011;43937;41.366;2.072;2023-06-10T15:00:21;20.10;;;3.58;;
56039;SDS011;43937;41.366;2.072;2023-06-10T15:02:49;10.40;;;3.08;;
56039;SDS011;43937;41.366;2.072;2023-06-10T15:05:15;10.38;;;3.58;;
56039;SDS011;43937;41.366;2.072;2023-06-10T15:07:42;7.22;;;3.30;;
56039;SDS011;43937;41.366;2.072;2023-06-10T15:10:08;8.10;;;3.08;;
56039;SDS011;43937;41.366;2.072;2023-06-10T15:12:34;10.05;;;2.70;;
56039;SDS011;43937;41.366;2.072;2023-06-10T15:14:59;11.45;;;3.17;;
56039;SDS011;43937;41.366;2.072;2023-06-10T15:17:25;11.15;;;3.17;;
56039;SDS011;43937;41.366;2.072;2023-06-10T15:19:51;6.82;;;3.00;;
56039;SDS011;43937;41.366;2.072;2023-06-10T15:22:16;8.02;;;3.35;;
56039;SDS011;43937;41.366;2.072;2023-06-10T15:24:42;5.68;;;2.92;;